sensor_id;sensor_type;location;lat;lon;timestamp;P1;durP1;ratioP1;P2;durP2;ratioP2
68108;SDS011;54893;49.864;19.084;2023-04-06T00:03:11;135.03;;;48.77;;
68108;SDS011;54893;49.864;19.084;2023-04-06T00:08:11;117.77;;;43.73;;
68108;SDS011;54893;49.864;19.084;2023-04-06T00:13:11;111.30;;;39.37;;
68108;SDS011;54893;49.864;19.084;2023-04-06T00:18:12;103.70;;;37.93;;
68108;SDS011;54893;49.864;19.084;2023-04-06T00:23:12;104.80;;;37.50;;
68108;SDS011;54893;49.864;19.084;2023-04-06T00:28:13;105.27;;;36.53;;
68108;SDS011;54893;49.864;19.084;2023-04-06T00:33:13;101.73;;;36.50;;
68108;SDS011;54893;49.864;19.084;2023-04-06T00:38:14;97.63;;;33.90;;
68108;SDS011;54893;49.864;19.084;2023-04-06T00:43:15;97.25;;;33.75;;
68108;SDS011;54893;49.864;19.084;2023-04-06T00:48:15;98.80;;;33.67;;
68108;SDS011;54893;49.864;19.084;2023-04-06T00:53:16;94.57;;;33.50;;
68108;SDS011;54893;49.864;19.084;2023-04-06T00:58:17;97.57;;;35.15;;
68108;SDS011;54893;49.864;19.084;2023-04-06T01:03:17;98.47;;;33.73;;
68108;SDS011;54893;49.864;19.084;2023-04-06T01:08:18;89.97;;;30.87;;
68108;SDS011;54893;49.864;19.084;2023-04-06T01:13:18;83.30;;;30.27;;
68108;SDS011;54893;49.864;19.084;2023-04-06T01:18:24;142.97;;;43.53;;
68108;SDS011;54893;49.864;19.084;2023-04-06T01:23:26;100.70;;;34.17;;
68108;SDS011;54893;49.864;19.084;2023-04-06T01:28:26;104.93;;;35.30;;
68108;SDS011;54893;49.864;19.084;2023-04-06T01:33:26;116.07;;;39.33;;
68108;SDS011;54893;49.864;19.084;2023-04-06T01:38:27;104.47;;;36.07;;
68108;SDS011;54893;49.864;19.084;2023-04-06T01:43:27;115.73;;;39.27;;
68108;SDS011;54893;49.864;19.084;2023-04-06T01:48:27;106.83;;;37.30;;
68108;SDS011;54893;49.864;19.084;2023-04-06T01:53:28;107.60;;;36.80;;
68108;SDS011;54893;49.864;19.084;2023-04-06T01:58:28;110.47;;;36.80;;
68108;SDS011;54893;49.864;19.084;2023-04-06T02:03:29;102.57;;;38.57;;
68108;SDS011;54893;49.864;19.084;2023-04-06T02:08:30;107.32;;;39.47;;
68108;SDS011;54893;49.864;19.084;2023-04-06T02:13:30;105.50;;;39.07;;
68108;SDS011;54893;49.864;19.084;2023-04-06T02:18:31;105.17;;;37.53;;
68108;SDS011;54893;49.864;19.084;2023-04-06T02:23:32;99.93;;;36.70;;
68108;SDS011;54893;49.864;19.084;2023-04-06T02:28:32;110.47;;;38.30;;
68108;SDS011;54893;49.864;19.084;2023-04-06T02:33:32;94.57;;;34.27;;
68108;SDS011;54893;49.864;19.084;2023-04-06T02:38:33;106.67;;;37.90;;
68108;SDS011;54893;49.864;19.084;2023-04-06T02:43:33;111.67;;;39.23;;
68108;SDS011;54893;49.864;19.084;2023-04-06T02:48:34;113.00;;;40.97;;
68108;SDS011;54893;49.864;19.084;2023-04-06T02:53:36;106.35;;;38.47;;
68108;SDS011;54893;49.864;19.084;2023-04-06T02:58:36;107.87;;;40.10;;
68108;SDS011;54893;49.864;19.084;2023-04-06T03:03:37;115.07;;;41.83;;
68108;SDS011;54893;49.864;19.084;2023-04-06T03:08:37;114.10;;;44.07;;
68108;SDS011;54893;49.864;19.084;2023-04-06T03:13:37;116.07;;;41.20;;
68108;SDS011;54893;49.864;19.084;2023-04-06T03:18:41;103.40;;;38.83;;
68108;SDS011;54893;49.864;19.084;2023-04-06T03:23:41;115.40;;;40.97;;
68108;SDS011;54893;49.864;19.084;2023-04-06T03:28:42;116.15;;;43.70;;
68108;SDS011;54893;49.864;19.084;2023-04-06T03:33:43;118.20;;;41.40;;
68108;SDS011;54893;49.864;19.084;2023-04-06T03:38:43;104.50;;;38.53;;
68108;SDS011;54893;49.864;19.084;2023-04-06T03:43:43;98.50;;;34.63;;
68108;SDS011;54893;49.864;19.084;2023-04-06T03:48:45;96.60;;;34.92;;
68108;SDS011;54893;49.864;19.084;2023-04-06T03:53:48;89.72;;;32.92;;
68108;SDS011;54893;49.864;19.084;2023-04-06T03:58:48;86.90;;;33.10;;
68108;SDS011;54893;49.864;19.084;2023-04-06T04:03:51;91.87;;;33.77;;
68108;SDS011;54893;49.864;19.084;2023-04-06T04:08:52;86.57;;;31.73;;
68108;SDS011;54893;49.864;19.084;2023-04-06T04:13:53;96.67;;;33.40;;
68108;SDS011;54893;49.864;19.084;2023-04-06T04:18:53;109.03;;;37.15;;
68108;SDS011;54893;49.864;19.084;2023-04-06T04:23:53;118.00;;;42.80;;
68108;SDS011;54893;49.864;19.084;2023-04-06T04:28:54;120.90;;;43.27;;
68108;SDS011;54893;49.864;19.084;2023-04-06T04:33:54;125.77;;;44.97;;
68108;SDS011;54893;49.864;19.084;2023-04-06T04:38:55;149.80;;;53.20;;
68108;SDS011;54893;49.864;19.084;2023-04-06T04:43:55;183.90;;;59.77;;
68108;SDS011;54893;49.864;19.084;2023-04-06T04:48:55;247.77;;;76.17;;
68108;SDS011;54893;49.864;19.084;2023-04-06T04:53:56;216.00;;;67.70;;
68108;SDS011;54893;49.864;19.084;2023-04-06T04:58:56;149.27;;;50.50;;
68108;SDS011;54893;49.864;19.084;2023-04-06T05:03:57;114.53;;;43.50;;
68108;SDS011;54893;49.864;19.084;2023-04-06T05:08:57;109.10;;;41.80;;
68108;SDS011;54893;49.864;19.084;2023-04-06T05:13:57;101.27;;;36.93;;
68108;SDS011;54893;49.864;19.084;2023-04-06T05:18:59;90.70;;;33.83;;
68108;SDS011;54893;49.864;19.084;2023-04-06T05:23:59;99.33;;;37.80;;
68108;SDS011;54893;49.864;19.084;2023-04-06T05:29:02;103.28;;;39.47;;
68108;SDS011;54893;49.864;19.084;2023-04-06T05:34:02;78.23;;;29.13;;
68108;SDS011;54893;49.864;19.084;2023-04-06T05:39:03;90.13;;;30.83;;
68108;SDS011;54893;49.864;19.084;2023-04-06T05:44:03;91.20;;;31.90;;
68108;SDS011;54893;49.864;19.084;2023-04-06T05:49:03;89.57;;;30.50;;
68108;SDS011;54893;49.864;19.084;2023-04-06T05:54:04;87.80;;;32.30;;
68108;SDS011;54893;49.864;19.084;2023-04-06T05:59:05;74.43;;;27.37;;
68108;SDS011;54893;49.864;19.084;2023-04-06T06:04:05;77.63;;;28.30;;
68108;SDS011;54893;49.864;19.084;2023-04-06T06:09:05;79.67;;;29.40;;
68108;SDS011;54893;49.864;19.084;2023-04-06T06:14:06;63.43;;;23.67;;
68108;SDS011;54893;49.864;19.084;2023-04-06T06:19:06;42.10;;;16.73;;
68108;SDS011;54893;49.864;19.084;2023-04-06T06:24:07;52.97;;;18.77;;
68108;SDS011;54893;49.864;19.084;2023-04-06T06:29:07;45.07;;;16.87;;
68108;SDS011;54893;49.864;19.084;2023-04-06T06:34:08;43.93;;;16.53;;
68108;SDS011;54893;49.864;19.084;2023-04-06T06:39:08;41.23;;;16.83;;
68108;SDS011;54893;49.864;19.084;2023-04-06T06:44:08;42.07;;;15.53;;
68108;SDS011;54893;49.864;19.084;2023-04-06T06:49:09;25.03;;;10.50;;
68108;SDS011;54893;49.864;19.084;2023-04-06T06:54:12;24.63;;;10.80;;
68108;SDS011;54893;49.864;19.084;2023-04-06T06:59:12;31.30;;;12.03;;
68108;SDS011;54893;49.864;19.084;2023-04-06T07:04:13;28.23;;;10.33;;
68108;SDS011;54893;49.864;19.084;2023-04-06T07:09:13;30.97;;;11.50;;
68108;SDS011;54893;49.864;19.084;2023-04-06T07:14:15;29.50;;;12.57;;
68108;SDS011;54893;49.864;19.084;2023-04-06T07:19:15;31.20;;;12.67;;
68108;SDS011;54893;49.864;19.084;2023-04-06T07:24:16;30.60;;;12.70;;
68108;SDS011;54893;49.864;19.084;2023-04-06T07:29:16;26.50;;;11.40;;
68108;SDS011;54893;49.864;19.084;2023-04-06T07:34:18;19.50;;;8.85;;
68108;SDS011;54893;49.864;19.084;2023-04-06T07:39:18;14.77;;;5.70;;
68108;SDS011;54893;49.864;19.084;2023-04-06T07:44:18;17.87;;;7.87;;
68108;SDS011;54893;49.864;19.084;2023-04-06T07:49:18;21.10;;;9.73;;
68108;SDS011;54893;49.864;19.084;2023-04-06T07:54:20;25.90;;;9.87;;
68108;SDS011;54893;49.864;19.084;2023-04-06T07:59:21;23.67;;;9.47;;
68108;SDS011;54893;49.864;19.084;2023-04-06T08:04:21;22.33;;;9.70;;
68108;SDS011;54893;49.864;19.084;2023-04-06T08:09:21;18.00;;;8.37;;
68108;SDS011;54893;49.864;19.084;2023-04-06T08:14:22;22.50;;;9.90;;
68108;SDS011;54893;49.864;19.084;2023-04-06T08:19:22;22.03;;;8.53;;
68108;SDS011;54893;49.864;19.084;2023-04-06T08:24:22;19.40;;;9.40;;
68108;SDS011;54893;49.864;19.084;2023-04-06T08:29:23;16.63;;;7.67;;
68108;SDS011;54893;49.864;19.084;2023-04-06T08:34:23;20.73;;;8.60;;
68108;SDS011;54893;49.864;19.084;2023-04-06T08:39:24;17.93;;;10.00;;
68108;SDS011;54893;49.864;19.084;2023-04-06T08:44:25;18.70;;;7.85;;
68108;SDS011;54893;49.864;19.084;2023-04-06T08:49:26;19.87;;;7.63;;
68108;SDS011;54893;49.864;19.084;2023-04-06T08:54:27;15.35;;;7.05;;
68108;SDS011;54893;49.864;19.084;2023-04-06T08:59:27;16.53;;;8.03;;
68108;SDS011;54893;49.864;19.084;2023-04-06T09:04:28;13.93;;;5.40;;
68108;SDS011;54893;49.864;19.084;2023-04-06T09:09:29;20.50;;;8.47;;
68108;SDS011;54893;49.864;19.084;2023-04-06T09:14:38;21.80;;;9.97;;
68108;SDS011;54893;49.864;19.084;2023-04-06T09:19:45;26.63;;;10.05;;
68108;SDS011;54893;49.864;19.084;2023-04-06T09:24:47;25.00;;;10.40;;
68108;SDS011;54893;49.864;19.084;2023-04-06T09:29:49;26.55;;;11.80;;
68108;SDS011;54893;49.864;19.084;2023-04-06T09:34:50;26.60;;;10.60;;
68108;SDS011;54893;49.864;19.084;2023-04-06T09:39:50;20.27;;;8.10;;
68108;SDS011;54893;49.864;19.084;2023-04-06T09:44:52;23.70;;;9.63;;
68108;SDS011;54893;49.864;19.084;2023-04-06T09:49:55;21.75;;;9.00;;
68108;SDS011;54893;49.864;19.084;2023-04-06T09:55:02;22.38;;;9.48;;
68108;SDS011;54893;49.864;19.084;2023-04-06T10:00:07;19.58;;;9.57;;
68108;SDS011;54893;49.864;19.084;2023-04-06T10:05:22;20.30;;;9.13;;
68108;SDS011;54893;49.864;19.084;2023-04-06T10:10:27;17.10;;;7.95;;
68108;SDS011;54893;49.864;19.084;2023-04-06T10:15:28;19.38;;;7.45;;
68108;SDS011;54893;49.864;19.084;2023-04-06T10:26:13;14.48;;;5.63;;
68108;SDS011;54893;49.864;19.084;2023-04-06T10:31:25;20.83;;;10.53;;
68108;SDS011;54893;49.864;19.084;2023-04-06T10:36:28;18.98;;;9.23;;
68108;SDS011;54893;49.864;19.084;2023-04-06T10:41:50;21.48;;;7.72;;
68108;SDS011;54893;49.864;19.084;2023-04-06T10:46:57;20.05;;;8.23;;
68108;SDS011;54893;49.864;19.084;2023-04-06T10:52:00;20.73;;;8.27;;
68108;SDS011;54893;49.864;19.084;2023-04-06T10:57:00;18.47;;;7.47;;
68108;SDS011;54893;49.864;19.084;2023-04-06T11:02:01;21.57;;;11.63;;
68108;SDS011;54893;49.864;19.084;2023-04-06T11:07:01;17.30;;;7.90;;
68108;SDS011;54893;49.864;19.084;2023-04-06T11:12:02;18.13;;;8.77;;
68108;SDS011;54893;49.864;19.084;2023-04-06T11:17:02;20.13;;;8.87;;
68108;SDS011;54893;49.864;19.084;2023-04-06T11:22:06;31.43;;;9.23;;
68108;SDS011;54893;49.864;19.084;2023-04-06T11:27:07;25.65;;;13.10;;
68108;SDS011;54893;49.864;19.084;2023-04-06T11:32:08;26.50;;;14.00;;
68108;SDS011;54893;49.864;19.084;2023-04-06T11:37:10;20.48;;;8.77;;
68108;SDS011;54893;49.864;19.084;2023-04-06T11:42:11;27.13;;;13.77;;
68108;SDS011;54893;49.864;19.084;2023-04-06T11:47:12;21.13;;;9.67;;
68108;SDS011;54893;49.864;19.084;2023-04-06T11:57:16;24.10;;;10.10;;
68108;SDS011;54893;49.864;19.084;2023-04-06T12:02:17;28.25;;;11.55;;
68108;SDS011;54893;49.864;19.084;2023-04-06T12:07:18;27.97;;;11.60;;
68108;SDS011;54893;49.864;19.084;2023-04-06T12:12:18;30.00;;;12.37;;
68108;SDS011;54893;49.864;19.084;2023-04-06T12:17:19;24.77;;;10.13;;
68108;SDS011;54893;49.864;19.084;2023-04-06T12:22:20;31.17;;;12.00;;
68108;SDS011;54893;49.864;19.084;2023-04-06T12:27:21;24.85;;;10.90;;
68108;SDS011;54893;49.864;19.084;2023-04-06T12:32:21;26.23;;;14.37;;
68108;SDS011;54893;49.864;19.084;2023-04-06T12:37:21;27.70;;;10.57;;
68108;SDS011;54893;49.864;19.084;2023-04-06T12:42:22;27.10;;;15.27;;
68108;SDS011;54893;49.864;19.084;2023-04-06T12:47:22;24.47;;;10.43;;
68108;SDS011;54893;49.864;19.084;2023-04-06T12:52:22;26.43;;;11.73;;
68108;SDS011;54893;49.864;19.084;2023-04-06T12:57:23;23.80;;;10.67;;
68108;SDS011;54893;49.864;19.084;2023-04-06T13:02:23;23.47;;;10.00;;
68108;SDS011;54893;49.864;19.084;2023-04-06T13:07:24;33.67;;;17.83;;
68108;SDS011;54893;49.864;19.084;2023-04-06T13:12:24;24.07;;;10.63;;
68108;SDS011;54893;49.864;19.084;2023-04-06T13:17:26;20.52;;;9.20;;
68108;SDS011;54893;49.864;19.084;2023-04-06T13:22:27;28.95;;;13.35;;
68108;SDS011;54893;49.864;19.084;2023-04-06T13:27:28;32.53;;;13.27;;
68108;SDS011;54893;49.864;19.084;2023-04-06T13:32:28;38.77;;;15.23;;
68108;SDS011;54893;49.864;19.084;2023-04-06T13:37:28;30.70;;;12.43;;
68108;SDS011;54893;49.864;19.084;2023-04-06T13:42:29;172.13;;;71.93;;
68108;SDS011;54893;49.864;19.084;2023-04-06T13:47:29;33.37;;;13.80;;
68108;SDS011;54893;49.864;19.084;2023-04-06T13:52:30;31.17;;;14.83;;
68108;SDS011;54893;49.864;19.084;2023-04-06T13:57:30;92.20;;;26.30;;
68108;SDS011;54893;49.864;19.084;2023-04-06T14:02:30;105.37;;;27.83;;
68108;SDS011;54893;49.864;19.084;2023-04-06T14:07:31;53.63;;;18.43;;
68108;SDS011;54893;49.864;19.084;2023-04-06T14:12:31;51.67;;;17.53;;
68108;SDS011;54893;49.864;19.084;2023-04-06T14:17:32;167.17;;;43.27;;
68108;SDS011;54893;49.864;19.084;2023-04-06T14:22:32;36.22;;;13.45;;
68108;SDS011;54893;49.864;19.084;2023-04-06T14:27:32;67.53;;;20.63;;
68108;SDS011;54893;49.864;19.084;2023-04-06T14:32:33;108.50;;;28.58;;
68108;SDS011;54893;49.864;19.084;2023-04-06T14:37:33;54.97;;;18.20;;
68108;SDS011;54893;49.864;19.084;2023-04-06T14:42:35;69.60;;;20.73;;
68108;SDS011;54893;49.864;19.084;2023-04-06T14:47:35;68.47;;;19.80;;
68108;SDS011;54893;49.864;19.084;2023-04-06T14:52:36;36.33;;;15.60;;
68108;SDS011;54893;49.864;19.084;2023-04-06T14:57:37;36.83;;;14.90;;
68108;SDS011;54893;49.864;19.084;2023-04-06T15:02:37;31.80;;;12.90;;
68108;SDS011;54893;49.864;19.084;2023-04-06T15:07:37;85.17;;;21.20;;
68108;SDS011;54893;49.864;19.084;2023-04-06T15:12:38;37.67;;;14.43;;
68108;SDS011;54893;49.864;19.084;2023-04-06T15:17:38;47.07;;;19.57;;
68108;SDS011;54893;49.864;19.084;2023-04-06T15:22:39;38.67;;;16.30;;
68108;SDS011;54893;49.864;19.084;2023-04-06T15:27:39;38.73;;;15.57;;
68108;SDS011;54893;49.864;19.084;2023-04-06T15:32:39;43.50;;;16.60;;
68108;SDS011;54893;49.864;19.084;2023-04-06T15:37:40;49.87;;;19.33;;
68108;SDS011;54893;49.864;19.084;2023-04-06T15:42:40;42.85;;;17.05;;
68108;SDS011;54893;49.864;19.084;2023-04-06T15:47:42;46.97;;;18.40;;
68108;SDS011;54893;49.864;19.084;2023-04-06T15:52:44;45.95;;;18.83;;
68108;SDS011;54893;49.864;19.084;2023-04-06T15:57:44;43.65;;;16.70;;
68108;SDS011;54893;49.864;19.084;2023-04-06T16:02:45;39.00;;;15.98;;
68108;SDS011;54893;49.864;19.084;2023-04-06T16:07:45;41.30;;;16.27;;
68108;SDS011;54893;49.864;19.084;2023-04-06T16:12:46;51.10;;;20.50;;
68108;SDS011;54893;49.864;19.084;2023-04-06T16:17:46;51.23;;;20.47;;
68108;SDS011;54893;49.864;19.084;2023-04-06T16:22:46;61.05;;;22.20;;
68108;SDS011;54893;49.864;19.084;2023-04-06T16:27:48;76.57;;;28.63;;
68108;SDS011;54893;49.864;19.084;2023-04-06T16:32:48;71.00;;;27.23;;
68108;SDS011;54893;49.864;19.084;2023-04-06T16:37:50;64.85;;;23.38;;
68108;SDS011;54893;49.864;19.084;2023-04-06T16:42:51;70.03;;;24.23;;
68108;SDS011;54893;49.864;19.084;2023-04-06T16:47:51;72.40;;;25.65;;
68108;SDS011;54893;49.864;19.084;2023-04-06T16:52:52;85.68;;;31.20;;
68108;SDS011;54893;49.864;19.084;2023-04-06T16:57:55;85.70;;;28.67;;
68108;SDS011;54893;49.864;19.084;2023-04-06T17:02:55;87.43;;;28.77;;
68108;SDS011;54893;49.864;19.084;2023-04-06T17:07:56;98.27;;;33.53;;
68108;SDS011;54893;49.864;19.084;2023-04-06T17:12:56;104.60;;;34.73;;
68108;SDS011;54893;49.864;19.084;2023-04-06T17:17:57;106.30;;;39.00;;
68108;SDS011;54893;49.864;19.084;2023-04-06T17:22:57;92.43;;;35.87;;
68108;SDS011;54893;49.864;19.084;2023-04-06T17:27:57;106.75;;;43.17;;
68108;SDS011;54893;49.864;19.084;2023-04-06T17:32:57;99.67;;;35.33;;
68108;SDS011;54893;49.864;19.084;2023-04-06T17:37:58;73.57;;;25.73;;
68108;SDS011;54893;49.864;19.084;2023-04-06T17:42:58;80.43;;;30.37;;
68108;SDS011;54893;49.864;19.084;2023-04-06T17:47:58;89.18;;;32.22;;
68108;SDS011;54893;49.864;19.084;2023-04-06T17:52:59;88.83;;;28.67;;
68108;SDS011;54893;49.864;19.084;2023-04-06T17:57:59;75.50;;;26.40;;
68108;SDS011;54893;49.864;19.084;2023-04-06T18:03:00;66.67;;;23.30;;
68108;SDS011;54893;49.864;19.084;2023-04-06T18:08:00;79.67;;;28.17;;
68108;SDS011;54893;49.864;19.084;2023-04-06T18:13:01;88.70;;;33.00;;
68108;SDS011;54893;49.864;19.084;2023-04-06T18:18:01;91.63;;;30.80;;
68108;SDS011;54893;49.864;19.084;2023-04-06T18:23:01;77.57;;;28.20;;
68108;SDS011;54893;49.864;19.084;2023-04-06T18:28:02;94.87;;;36.60;;
68108;SDS011;54893;49.864;19.084;2023-04-06T18:33:02;82.00;;;29.57;;
68108;SDS011;54893;49.864;19.084;2023-04-06T18:38:03;75.57;;;28.83;;
68108;SDS011;54893;49.864;19.084;2023-04-06T18:43:04;70.13;;;25.30;;
68108;SDS011;54893;49.864;19.084;2023-04-06T18:48:05;75.82;;;25.95;;
68108;SDS011;54893;49.864;19.084;2023-04-06T18:53:06;73.63;;;26.35;;
68108;SDS011;54893;49.864;19.084;2023-04-06T18:58:06;73.93;;;28.17;;
68108;SDS011;54893;49.864;19.084;2023-04-06T19:03:07;82.17;;;29.47;;
68108;SDS011;54893;49.864;19.084;2023-04-06T19:08:07;84.22;;;30.52;;
68108;SDS011;54893;49.864;19.084;2023-04-06T19:13:08;88.30;;;32.27;;
68108;SDS011;54893;49.864;19.084;2023-04-06T19:18:08;89.77;;;33.03;;
68108;SDS011;54893;49.864;19.084;2023-04-06T19:23:09;107.87;;;41.33;;
68108;SDS011;54893;49.864;19.084;2023-04-06T19:28:09;99.10;;;35.60;;
68108;SDS011;54893;49.864;19.084;2023-04-06T19:33:10;94.73;;;36.97;;
68108;SDS011;54893;49.864;19.084;2023-04-06T19:38:10;104.43;;;38.50;;
68108;SDS011;54893;49.864;19.084;2023-04-06T19:43:10;106.73;;;40.67;;
68108;SDS011;54893;49.864;19.084;2023-04-06T19:48:11;111.47;;;41.70;;
68108;SDS011;54893;49.864;19.084;2023-04-06T19:53:11;112.47;;;41.67;;
68108;SDS011;54893;49.864;19.084;2023-04-06T19:58:12;109.60;;;39.47;;
68108;SDS011;54893;49.864;19.084;2023-04-06T20:03:13;114.07;;;44.50;;
68108;SDS011;54893;49.864;19.084;2023-04-06T20:08:14;113.10;;;38.67;;
68108;SDS011;54893;49.864;19.084;2023-04-06T20:13:14;104.55;;;39.00;;
68108;SDS011;54893;49.864;19.084;2023-04-06T20:18:15;103.60;;;37.80;;
68108;SDS011;54893;49.864;19.084;2023-04-06T20:23:15;116.77;;;43.63;;
68108;SDS011;54893;49.864;19.084;2023-04-06T20:28:16;104.43;;;39.65;;
68108;SDS011;54893;49.864;19.084;2023-04-06T20:33:17;107.80;;;41.22;;
68108;SDS011;54893;49.864;19.084;2023-04-06T20:38:17;111.87;;;39.57;;
68108;SDS011;54893;49.864;19.084;2023-04-06T20:43:17;116.30;;;41.87;;
68108;SDS011;54893;49.864;19.084;2023-04-06T20:48:19;108.57;;;36.58;;
68108;SDS011;54893;49.864;19.084;2023-04-06T20:53:20;98.43;;;35.20;;
68108;SDS011;54893;49.864;19.084;2023-04-06T20:58:20;113.77;;;41.73;;
68108;SDS011;54893;49.864;19.084;2023-04-06T21:03:20;121.47;;;45.77;;
68108;SDS011;54893;49.864;19.084;2023-04-06T21:08:21;120.77;;;43.63;;
68108;SDS011;54893;49.864;19.084;2023-04-06T21:13:23;114.82;;;40.85;;
68108;SDS011;54893;49.864;19.084;2023-04-06T21:18:23;122.40;;;42.93;;
68108;SDS011;54893;49.864;19.084;2023-04-06T21:23:24;124.90;;;46.95;;
68108;SDS011;54893;49.864;19.084;2023-04-06T21:28:25;115.90;;;41.87;;
68108;SDS011;54893;49.864;19.084;2023-04-06T21:33:25;112.23;;;38.57;;
68108;SDS011;54893;49.864;19.084;2023-04-06T21:38:26;125.10;;;45.03;;
68108;SDS011;54893;49.864;19.084;2023-04-06T21:43:26;119.43;;;40.67;;
68108;SDS011;54893;49.864;19.084;2023-04-06T21:48:26;110.57;;;39.30;;
68108;SDS011;54893;49.864;19.084;2023-04-06T21:53:27;113.30;;;40.92;;
68108;SDS011;54893;49.864;19.084;2023-04-06T21:58:27;115.33;;;42.00;;
68108;SDS011;54893;49.864;19.084;2023-04-06T22:03:27;113.70;;;40.13;;
68108;SDS011;54893;49.864;19.084;2023-04-06T22:08:27;125.33;;;44.57;;
68108;SDS011;54893;49.864;19.084;2023-04-06T22:13:28;131.60;;;49.37;;
68108;SDS011;54893;49.864;19.084;2023-04-06T22:18:28;123.00;;;44.00;;
68108;SDS011;54893;49.864;19.084;2023-04-06T22:23:29;133.83;;;47.03;;
68108;SDS011;54893;49.864;19.084;2023-04-06T22:28:31;138.07;;;49.70;;
68108;SDS011;54893;49.864;19.084;2023-04-06T22:33:31;125.63;;;41.90;;
68108;SDS011;54893;49.864;19.084;2023-04-06T22:38:31;113.77;;;39.60;;
68108;SDS011;54893;49.864;19.084;2023-04-06T22:43:32;116.33;;;41.67;;
68108;SDS011;54893;49.864;19.084;2023-04-06T22:48:32;117.40;;;41.23;;
68108;SDS011;54893;49.864;19.084;2023-04-06T22:53:32;113.23;;;38.87;;
68108;SDS011;54893;49.864;19.084;2023-04-06T22:58:33;111.27;;;36.43;;
68108;SDS011;54893;49.864;19.084;2023-04-06T23:03:33;128.93;;;44.00;;
68108;SDS011;54893;49.864;19.084;2023-04-06T23:08:33;101.13;;;33.97;;
68108;SDS011;54893;49.864;19.084;2023-04-06T23:13:34;110.30;;;38.40;;
68108;SDS011;54893;49.864;19.084;2023-04-06T23:18:34;129.37;;;45.20;;
68108;SDS011;54893;49.864;19.084;2023-04-06T23:23:35;118.93;;;37.97;;
68108;SDS011;54893;49.864;19.084;2023-04-06T23:28:35;114.20;;;36.53;;
68108;SDS011;54893;49.864;19.084;2023-04-06T23:33:35;109.93;;;36.63;;
68108;SDS011;54893;49.864;19.084;2023-04-06T23:38:36;118.73;;;37.87;;
68108;SDS011;54893;49.864;19.084;2023-04-06T23:43:36;118.73;;;39.70;;
68108;SDS011;54893;49.864;19.084;2023-04-06T23:48:36;128.73;;;42.20;;
68108;SDS011;54893;49.864;19.084;2023-04-06T23:53:38;126.88;;;42.83;;
68108;SDS011;54893;49.864;19.084;2023-04-06T23:58:38;103.93;;;35.50;;
